Time;durP1;ratioP1;P1;durP2;ratioP2;P2;SDS_P1;SDS_P2;PMS_P1;PMS_P2;Temp;Humidity;BMP_temperature;BMP_pressure;BME280_temperature;BME280_humidity;BME280_pressure;Samples;Min_cycle;Max_cycle;Signal;HPM_P1;HPM_P2
2023/02/27 00:00:19;;;;;;;1.63;1.00;;;19.90;28.90;;;;;;5050125;28;20029;-52
2023/02/27 00:02:50;;;;;;;1.75;1.08;;;19.90;28.90;;;;;;5048698;28;20021;-53
2023/02/27 00:05:17;;;;;;;2.03;0.95;;;19.90;28.90;;;;;;5046225;28;20029;-53
2023/02/27 00:07:43;;;;;;;2.15;1.02;;;19.90;28.90;;;;;;5045859;28;20040;-51
2023/02/27 00:10:10;;;;;;;1.75;1.00;;;19.90;28.90;;;;;;5049522;28;20021;-48
2023/02/27 00:12:37;;;;;;;3.67;1.30;;;19.90;28.80;;;;;;5044681;28;20057;-49
2023/02/27 00:15:07;;;;;;;2.50;1.13;;;19.90;28.80;;;;;;5047238;28;20036;-54
2023/02/27 00:17:34;;;;;;;1.42;0.85;;;19.90;28.90;;;;;;5044394;28;20044;-52
2023/02/27 00:20:00;;;;;;;2.05;0.80;;;19.90;28.90;;;;;;5045594;28;20144;-53
2023/02/27 00:22:26;;;;;;;1.30;1.00;;;19.90;28.90;;;;;;5047594;28;20033;-51
2023/02/27 00:24:52;;;;;;;2.80;1.25;;;19.90;28.90;;;;;;5047488;28;20025;-52
2023/02/27 00:27:18;;;;;;;1.88;0.90;;;19.90;28.90;;;;;;5049192;28;20124;-53
2023/02/27 00:29:44;;;;;;;2.35;1.25;;;19.90;28.90;;;;;;5048512;28;20108;-51
2023/02/27 00:32:10;;;;;;;1.70;1.00;;;19.90;28.80;;;;;;5043456;28;20025;-53
2023/02/27 00:34:36;;;;;;;1.90;1.10;;;19.90;28.80;;;;;;5046577;28;20033;-51
2023/02/27 00:37:02;;;;;;;4.28;0.80;;;19.90;28.80;;;;;;5049285;28;20029;-54
2023/02/27 00:39:28;;;;;;;1.20;0.80;;;19.90;28.80;;;;;;5049407;28;20025;-53
2023/02/27 00:41:54;;;;;;;1.63;0.82;;;19.80;28.80;;;;;;5048570;28;20104;-51
2023/02/27 00:44:20;;;;;;;1.98;0.88;;;19.80;28.80;;;;;;5044361;28;20532;-52
2023/02/27 00:46:46;;;;;;;2.15;0.93;;;19.80;28.80;;;;;;5046244;28;20031;-53
2023/02/27 00:49:12;;;;;;;1.35;0.80;;;19.80;28.70;;;;;;5048013;28;20029;-50
2023/02/27 00:51:38;;;;;;;1.23;0.80;;;19.80;28.70;;;;;;5052204;28;20025;-53
2023/02/27 00:54:04;;;;;;;3.15;0.80;;;19.80;28.80;;;;;;5051823;28;20047;-51
2023/02/27 00:56:30;;;;;;;1.10;0.75;;;19.80;28.70;;;;;;5051202;28;20048;-49
2023/02/27 00:58:56;;;;;;;1.55;0.85;;;19.80;28.70;;;;;;5050278;28;20098;-53
2023/02/27 01:01:22;;;;;;;1.50;0.77;;;19.80;28.70;;;;;;5051865;28;20064;-53
2023/02/27 01:03:47;;;;;;;3.63;0.95;;;19.80;28.70;;;;;;5051118;28;20036;-50
2023/02/27 01:06:13;;;;;;;1.52;0.80;;;19.80;28.70;;;;;;5052543;28;20369;-54
2023/02/27 01:08:39;;;;;;;1.23;0.68;;;19.80;28.70;;;;;;5049388;28;20056;-54
2023/02/27 01:11:05;;;;;;;1.80;0.80;;;19.80;28.70;;;;;;5051302;28;20060;-53
2023/02/27 01:13:31;;;;;;;1.65;0.98;;;19.80;28.70;;;;;;5051125;28;20028;-51
2023/02/27 01:15:57;;;;;;;1.40;0.80;;;19.70;28.60;;;;;;5050220;28;20112;-47
2023/02/27 01:18:23;;;;;;;1.70;0.85;;;19.70;28.60;;;;;;5048551;28;20033;-52
2023/02/27 01:20:54;;;;;;;1.27;0.70;;;19.70;28.60;;;;;;5047531;28;20037;-51
2023/02/27 01:23:20;;;;;;;1.70;0.70;;;19.70;28.60;;;;;;5051283;28;20017;-51
2023/02/27 01:25:49;;;;;;;1.45;0.70;;;19.80;28.60;;;;;;5051261;28;20055;-53
2023/02/27 01:28:15;;;;;;;1.55;0.77;;;19.80;28.60;;;;;;5048578;28;20060;-49
2023/02/27 01:30:43;;;;;;;2.15;0.85;;;19.70;28.60;;;;;;5044160;28;20083;-53
2023/02/27 01:33:12;;;;;;;1.13;0.57;;;19.70;28.60;;;;;;5049965;28;20040;-54
2023/02/27 01:35:39;;;;;;;1.65;0.65;;;19.80;28.60;;;;;;5049415;28;20075;-51
2023/02/27 01:38:04;;;;;;;1.05;0.70;;;19.70;28.50;;;;;;5048266;28;20044;-52
2023/02/27 01:40:36;;;;;;;0.88;0.60;;;19.70;28.60;;;;;;5046023;28;20094;-53
2023/02/27 01:43:03;;;;;;;1.52;0.70;;;19.70;28.50;;;;;;5051330;28;20571;-50
2023/02/27 01:45:34;;;;;;;1.27;0.57;;;19.70;29.00;;;;;;5045671;28;20029;-46
2023/02/27 01:48:08;;;;;;;1.42;0.63;;;19.70;28.50;;;;;;5049642;28;20467;-51
2023/02/27 01:50:36;;;;;;;0.93;0.55;;;19.70;28.50;;;;;;5048831;28;20039;-52
2023/02/27 01:53:04;;;;;;;1.30;0.60;;;19.70;28.50;;;;;;5049193;28;20021;-50
2023/02/27 01:55:36;;;;;;;1.08;0.70;;;19.70;28.50;;;;;;5047761;28;20102;-53
2023/02/27 01:58:08;;;;;;;1.30;0.60;;;19.70;28.50;;;;;;5070685;28;20022;-48
2023/02/27 02:00:35;;;;;;;1.50;0.60;;;19.60;28.50;;;;;;5047000;28;20116;-50
2023/02/27 02:03:32;;;;;;;1.73;0.80;;;19.60;28.50;;;;;;5047808;28;20021;-53
2023/02/27 02:06:01;;;;;;;1.25;0.57;;;19.60;28.50;;;;;;5048437;28;21421;-55
2023/02/27 02:08:37;;;;;;;1.55;0.50;;;19.60;28.60;;;;;;5046702;28;20024;-49
2023/02/27 02:11:05;;;;;;;1.45;0.60;;;19.60;28.60;;;;;;5045641;28;21451;-51
2023/02/27 02:13:31;;;;;;;1.02;0.60;;;19.60;28.60;;;;;;5075695;28;20408;-52
2023/02/27 02:16:07;;;;;;;1.30;0.80;;;19.60;28.60;;;;;;5048226;28;20040;-51
2023/02/27 02:19:00;;;;;;;1.30;0.60;;;19.60;28.60;;;;;;5046382;28;20017;-50
2023/02/27 02:21:47;;;;;;;1.35;0.75;;;19.60;28.60;;;;;;5046048;28;20060;-52
2023/02/27 02:24:28;;;;;;;2.33;0.60;;;19.60;28.60;;;;;;5051129;28;20037;-52
2023/02/27 02:26:57;;;;;;;2.15;0.88;;;19.60;28.60;;;;;;5045539;28;20441;-50
2023/02/27 02:29:51;;;;;;;1.13;0.60;;;19.60;28.60;;;;;;5047681;28;20476;-52
2023/02/27 02:32:37;;;;;;;2.55;0.73;;;19.60;28.60;;;;;;5047009;28;20035;-50
2023/02/27 02:35:37;;;;;;;1.45;0.63;;;19.60;28.60;;;;;;5049444;28;20052;-53
2023/02/27 02:38:37;;;;;;;1.85;0.60;;;19.50;28.50;;;;;;5047248;28;20464;-48
2023/02/27 02:41:22;;;;;;;1.95;0.82;;;19.60;28.60;;;;;;5032275;28;20041;-54
2023/02/27 02:44:27;;;;;;;1.38;0.63;;;19.50;28.30;;;;;;5049796;28;20028;-53
2023/02/27 02:47:03;;;;;;;2.33;0.75;;;19.50;28.60;;;;;;5046117;28;20048;-50
2023/02/27 02:49:44;;;;;;;1.67;0.80;;;19.50;28.60;;;;;;5049896;28;20040;-56
2023/02/27 02:52:26;;;;;;;1.08;0.50;;;19.50;28.60;;;;;;5048149;28;20111;-52
2023/02/27 02:54:57;;;;;;;1.70;0.70;;;19.50;28.60;;;;;;5048800;28;21154;-50
2023/02/27 02:57:32;;;;;;;1.45;0.60;;;19.50;28.60;;;;;;5044945;28;20041;-52
2023/02/27 03:00:10;;;;;;;0.90;0.57;;;19.50;28.60;;;;;;5040757;28;20040;-50
2023/02/27 03:02:55;;;;;;;2.45;0.93;;;19.50;28.60;;;;;;5037328;28;20747;-47
2023/02/27 03:05:25;;;;;;;;;;;19.50;28.60;;;;;;5062306;28;20344;-48
2023/02/27 03:08:07;;;;;;;1.58;0.63;;;19.50;28.60;;;;;;5041926;28;19923;-52
2023/02/27 03:10:35;;;;;;;2.25;0.73;;;19.40;28.60;;;;;;5047829;28;20094;-47
2023/02/27 03:13:25;;;;;;;1.20;0.60;;;19.50;28.60;;;;;;5045449;28;20045;-50
2023/02/27 03:16:20;;;;;;;1.83;0.77;;;19.40;28.60;;;;;;5041661;28;20048;-55
2023/02/27 03:18:54;;;;;;;2.35;0.60;;;19.50;28.70;;;;;;5043168;28;20066;-51
2023/02/27 03:21:45;;;;;;;3.15;0.73;;;19.50;28.70;;;;;;5047659;28;20017;-50
2023/02/27 03:24:18;;;;;;;1.08;0.60;;;19.40;28.60;;;;;;5046583;28;21948;-51
2023/02/27 03:26:49;;;;;;;1.95;0.93;;;19.40;28.60;;;;;;5044964;28;20029;-47
2023/02/27 03:29:20;;;;;;;1.42;0.65;;;19.40;28.60;;;;;;5046057;28;20484;-50
2023/02/27 03:31:52;;;;;;;2.42;0.70;;;19.40;28.60;;;;;;5050187;28;20029;-53
2023/02/27 03:34:36;;;;;;;0.90;0.60;;;19.40;28.60;;;;;;5043958;28;20044;-52
2023/02/27 03:37:38;;;;;;;2.78;0.65;;;19.40;28.70;;;;;;5064891;28;20025;-50
2023/02/27 03:40:24;;;;;;;1.35;0.60;;;19.40;28.80;;;;;;5048089;28;21238;-52
2023/02/27 03:43:02;;;;;;;1.23;0.50;;;19.40;28.80;;;;;;5047386;28;20052;-51
2023/02/27 03:45:57;;;;;;;1.33;0.57;;;19.40;28.70;;;;;;5048505;28;22156;-50
2023/02/27 03:48:23;;;;;;;4.80;0.90;;;19.40;28.70;;;;;;5047548;28;20021;-54
2023/02/27 03:50:49;;;;;;;1.80;0.68;;;19.40;28.70;;;;;;5043475;28;20116;-51
2023/02/27 03:53:36;;;;;;;1.13;0.57;;;19.40;28.70;;;;;;5049066;28;20132;-53
2023/02/27 03:56:06;;;;;;;2.05;0.90;;;19.40;28.70;;;;;;5046915;28;20460;-53
2023/02/27 03:58:32;;;;;;;1.98;0.68;;;19.40;28.70;;;;;;5048321;28;20025;-53
2023/02/27 04:00:59;;;;;;;1.35;0.60;;;19.40;28.70;;;;;;5047976;28;20368;-54
2023/02/27 04:03:25;;;;;;;2.67;0.88;;;19.40;28.80;;;;;;5051537;28;20347;-50
2023/02/27 04:05:51;;;;;;;1.08;0.60;;;19.40;28.70;;;;;;5048958;28;20409;-52
2023/02/27 04:08:21;;;;;;;1.55;0.52;;;19.30;28.70;;;;;;5045057;28;20445;-46
2023/02/27 04:10:53;;;;;;;1.38;0.77;;;19.30;28.70;;;;;;5049589;28;20087;-52
2023/02/27 04:13:40;;;;;;;1.80;0.77;;;19.30;28.70;;;;;;5029354;28;20128;-53
2023/02/27 04:16:29;;;;;;;0.77;0.50;;;19.40;28.70;;;;;;5035537;28;20122;-51
2023/02/27 04:19:10;;;;;;;1.90;0.60;;;19.30;28.70;;;;;;5048711;28;20086;-53
2023/02/27 04:22:04;;;;;;;1.10;0.50;;;19.30;28.70;;;;;;5046901;28;20372;-51
2023/02/27 04:24:54;;;;;;;1.13;0.60;;;19.30;28.80;;;;;;5032748;28;20444;-49
2023/02/27 04:27:33;;;;;;;1.52;0.65;;;19.30;28.80;;;;;;5052066;28;20033;-48
2023/02/27 04:30:17;;;;;;;1.17;0.52;;;19.30;28.80;;;;;;5052492;28;20067;-52
2023/02/27 04:32:53;;;;;;;1.58;0.60;;;19.30;28.80;;;;;;5051094;28;20345;-54
2023/02/27 04:35:33;;;;;;;1.45;0.57;;;19.30;28.80;;;;;;5050088;28;20037;-53
2023/02/27 04:38:33;;;;;;;2.70;0.75;;;19.30;28.80;;;;;;5049220;28;20123;-52
2023/02/27 04:41:07;;;;;;;1.90;0.70;;;19.30;28.80;;;;;;5046527;28;20032;-53
2023/02/27 04:43:36;;;;;;;1.50;0.70;;;19.30;28.80;;;;;;5048425;28;20047;-54
2023/02/27 04:46:04;;;;;;;1.33;0.55;;;19.30;28.80;;;;;;5050106;28;20138;-54
2023/02/27 04:48:39;;;;;;;1.73;0.75;;;19.30;28.80;;;;;;5051160;28;20468;-50
2023/02/27 04:51:23;;;;;;;1.88;0.73;;;19.30;28.80;;;;;;5050756;28;20028;-48
2023/02/27 04:54:05;;;;;;;1.42;0.70;;;19.20;28.80;;;;;;5050889;28;20029;-51
2023/02/27 04:56:36;;;;;;;1.50;0.70;;;19.20;28.90;;;;;;5052019;28;20036;-52
2023/02/27 04:59:09;;;;;;;2.35;0.90;;;19.20;28.90;;;;;;5047900;28;20508;-52
2023/02/27 05:01:44;;;;;;;1.40;0.65;;;19.20;28.90;;;;;;5050452;28;20033;-49
2023/02/27 05:04:14;;;;;;;1.55;0.60;;;19.20;28.80;;;;;;5048888;28;20448;-49
2023/02/27 05:06:43;;;;;;;1.70;0.60;;;19.20;28.90;;;;;;5051639;28;20425;-52
2023/02/27 05:09:41;;;;;;;1.33;0.60;;;19.20;28.90;;;;;;5049085;28;20039;-47
2023/02/27 05:12:51;;;;;;;1.40;0.77;;;19.20;28.90;;;;;;5051839;28;20175;-53
2023/02/27 05:15:31;;;;;;;0.93;0.45;;;19.20;28.80;;;;;;5021596;28;20139;-49
2023/02/27 05:18:07;;;;;;;2.33;0.95;;;19.20;28.80;;;;;;5025631;28;20033;-48
2023/02/27 05:20:51;;;;;;;2.25;0.60;;;19.20;28.80;;;;;;5035424;28;20045;-51
2023/02/27 05:23:41;;;;;;;2.53;0.77;;;19.20;28.80;;;;;;5050366;28;20059;-51
2023/02/27 05:26:19;;;;;;;1.65;0.60;;;19.20;28.80;;;;;;5049019;28;20427;-53
2023/02/27 05:29:06;;;;;;;2.50;0.70;;;19.20;28.80;;;;;;5052062;28;20036;-52
2023/02/27 05:31:49;;;;;;;1.92;0.88;;;19.20;28.80;;;;;;5050405;28;20029;-51
2023/02/27 05:34:26;;;;;;;2.15;0.80;;;19.20;28.80;;;;;;5050129;28;20037;-50
2023/02/27 05:36:58;;;;;;;1.77;0.70;;;19.20;28.80;;;;;;5050952;28;20035;-52
2023/02/27 05:39:31;;;;;;;2.30;0.82;;;19.10;28.80;;;;;;5048578;28;20040;-49
2023/02/27 05:42:02;;;;;;;1.52;0.57;;;19.10;28.80;;;;;;5050927;28;20103;-49
2023/02/27 05:44:36;;;;;;;1.67;0.70;;;19.10;28.80;;;;;;5052347;28;20451;-49
2023/02/27 05:47:09;;;;;;;2.22;0.88;;;19.10;28.80;;;;;;5050440;28;20205;-50
2023/02/27 05:49:58;;;;;;;1.25;0.70;;;19.10;28.80;;;;;;5051120;28;20029;-51
2023/02/27 05:52:26;;;;;;;1.58;0.70;;;19.10;28.80;;;;;;5049352;28;20436;-49
2023/02/27 05:55:19;;;;;;;2.03;0.70;;;19.10;28.80;;;;;;5052439;28;20102;-52
2023/02/27 05:58:08;;;;;;;1.88;0.68;;;19.10;28.80;;;;;;5047938;28;20049;-49
2023/02/27 06:00:57;;;;;;;2.75;0.70;;;19.10;28.80;;;;;;5046826;28;20045;-48
2023/02/27 06:03:24;;;;;;;1.65;0.75;;;19.10;28.80;;;;;;5050603;28;20037;-54
2023/02/27 06:05:52;;;;;;;1.52;0.63;;;19.10;28.80;;;;;;5040023;28;20039;-51
2023/02/27 06:08:19;;;;;;;1.58;0.70;;;19.10;28.80;;;;;;5045251;28;20407;-52
2023/02/27 06:10:45;;;;;;;1.75;0.75;;;19.10;28.80;;;;;;5048090;28;20029;-51
2023/02/27 06:13:11;;;;;;;2.55;0.63;;;19.10;28.80;;;;;;5045911;28;20492;-52
2023/02/27 06:15:37;;;;;;;1.55;0.65;;;19.10;28.80;;;;;;5051395;28;20409;-52
2023/02/27 06:18:03;;;;;;;2.08;0.98;;;19.10;28.80;;;;;;5049740;28;20021;-50
2023/02/27 06:20:29;;;;;;;1.27;0.60;;;19.10;28.80;;;;;;5049363;28;20120;-51
2023/02/27 06:22:55;;;;;;;1.50;0.68;;;19.10;28.80;;;;;;5045887;28;21711;-49
2023/02/27 06:25:20;;;;;;;2.08;0.80;;;19.10;28.80;;;;;;5049113;28;20775;-49
2023/02/27 06:27:47;;;;;;;1.75;0.82;;;19.10;28.80;;;;;;5048623;28;20108;-51
2023/02/27 06:30:13;;;;;;;3.53;0.50;;;19.10;28.80;;;;;;5051349;28;20029;-53
2023/02/27 06:32:39;;;;;;;1.90;0.60;;;19.10;28.80;;;;;;5047282;28;20090;-50
2023/02/27 06:35:05;;;;;;;2.40;0.70;;;19.10;28.80;;;;;;5050174;28;20044;-51
2023/02/27 06:37:32;;;;;;;1.40;0.63;;;19.00;28.70;;;;;;5049474;28;20039;-52
2023/02/27 06:39:58;;;;;;;1.67;0.80;;;19.10;28.80;;;;;;5049588;28;20053;-50
2023/02/27 06:42:23;;;;;;;1.52;0.77;;;19.10;28.80;;;;;;5048904;28;20366;-47
2023/02/27 06:44:49;;;;;;;2.65;0.70;;;19.00;28.80;;;;;;5051199;28;20040;-52
2023/02/27 06:47:15;;;;;;;1.23;0.70;;;19.00;28.80;;;;;;5048073;28;20033;-52
2023/02/27 06:49:41;;;;;;;1.50;0.65;;;19.10;28.80;;;;;;5050893;28;20120;-51
2023/02/27 06:52:07;;;;;;;2.10;0.70;;;19.00;28.80;;;;;;5049861;28;20433;-53
2023/02/27 06:54:33;;;;;;;1.55;0.63;;;19.00;28.80;;;;;;5047101;28;20033;-52
2023/02/27 06:56:59;;;;;;;1.13;0.57;;;19.00;28.80;;;;;;5047460;28;20480;-53
2023/02/27 06:59:25;;;;;;;1.13;0.60;;;19.00;28.80;;;;;;5049411;28;20108;-48
2023/02/27 07:01:51;;;;;;;2.50;0.70;;;19.00;28.80;;;;;;5050427;28;20063;-52
2023/02/27 07:04:17;;;;;;;0.80;0.40;;;19.00;28.80;;;;;;5051520;28;20029;-50
2023/02/27 07:06:43;;;;;;;2.15;0.68;;;19.00;28.80;;;;;;5050453;28;20177;-49
2023/02/27 07:09:09;;;;;;;1.90;0.43;;;19.00;28.80;;;;;;5044533;28;20025;-48
2023/02/27 07:11:34;;;;;;;1.73;0.70;;;19.00;28.80;;;;;;5047323;28;20052;-53
2023/02/27 07:14:00;;;;;;;1.05;0.50;;;19.00;28.80;;;;;;5047659;28;20475;-54
2023/02/27 07:16:26;;;;;;;1.35;0.60;;;19.00;28.80;;;;;;5049993;28;20025;-52
2023/02/27 07:18:53;;;;;;;1.42;0.70;;;19.00;28.90;;;;;;5050682;28;20052;-52
2023/02/27 07:21:19;;;;;;;1.50;0.50;;;19.00;28.90;;;;;;5050067;28;20024;-53
2023/02/27 07:23:45;;;;;;;1.33;0.60;;;19.00;28.90;;;;;;5048716;28;20048;-51
2023/02/27 07:26:11;;;;;;;0.95;0.50;;;19.00;28.90;;;;;;5049928;28;20029;-47
2023/02/27 07:28:37;;;;;;;1.75;0.70;;;19.00;29.00;;;;;;5048571;28;20127;-49
2023/02/27 07:31:03;;;;;;;3.65;0.90;;;19.00;29.00;;;;;;5045552;28;20522;-53
2023/02/27 07:33:28;;;;;;;1.85;0.88;;;19.00;29.00;;;;;;5047533;28;20117;-53
2023/02/27 07:35:54;;;;;;;1.50;0.68;;;19.00;29.00;;;;;;5046986;28;20127;-54
2023/02/27 07:38:22;;;;;;;3.08;0.60;;;19.00;29.00;;;;;;5038599;28;20029;-51
2023/02/27 07:40:49;;;;;;;4.45;1.00;;;19.00;29.00;;;;;;5034522;28;20033;-53
2023/02/27 07:43:14;;;;;;;1.40;0.70;;;19.00;29.10;;;;;;5045496;28;20047;-52
2023/02/27 07:45:41;;;;;;;1.33;0.70;;;19.00;29.00;;;;;;5042288;28;20067;-52
2023/02/27 07:48:07;;;;;;;1.15;0.60;;;19.00;29.00;;;;;;5035962;28;20049;-50
2023/02/27 07:50:33;;;;;;;2.03;0.60;;;19.00;29.00;;;;;;5041528;28;20059;-49
2023/02/27 07:52:59;;;;;;;2.90;0.90;;;19.00;29.00;;;;;;5040332;28;20029;-50
2023/02/27 07:55:24;;;;;;;1.23;0.57;;;19.00;29.00;;;;;;5039100;28;20032;-54
2023/02/27 07:57:50;;;;;;;2.03;0.70;;;19.00;29.00;;;;;;5038021;28;20456;-48
2023/02/27 08:00:17;;;;;;;2.20;1.00;;;19.00;29.00;;;;;;5039076;28;20044;-51
2023/02/27 08:02:42;;;;;;;3.03;0.80;;;19.00;29.10;;;;;;5045446;28;20021;-51
2023/02/27 08:05:09;;;;;;;3.20;0.77;;;19.00;29.00;;;;;;5043888;28;20503;-49
2023/02/27 08:07:35;;;;;;;2.90;0.90;;;19.00;28.90;;;;;;5047037;28;20393;-49
2023/02/27 08:10:05;;;;;;;1.60;0.60;;;19.00;28.90;;;;;;5048039;28;20417;-49
2023/02/27 08:12:31;;;;;;;1.92;0.80;;;19.00;28.90;;;;;;5041549;28;20081;-50
2023/02/27 08:14:57;;;;;;;1.23;0.70;;;19.00;28.80;;;;;;5043997;28;20077;-48
2023/02/27 08:17:23;;;;;;;3.10;0.80;;;19.10;28.90;;;;;;5036640;28;20029;-52
2023/02/27 08:19:49;;;;;;;3.05;0.90;;;19.10;28.80;;;;;;5042763;28;20333;-54
2023/02/27 08:22:14;;;;;;;3.50;1.00;;;19.10;28.80;;;;;;5041531;28;20033;-51
2023/02/27 08:24:41;;;;;;;1.83;0.73;;;19.10;28.80;;;;;;5042868;28;20030;-52
2023/02/27 08:27:07;;;;;;;2.05;0.70;;;19.20;28.80;;;;;;5049359;28;20383;-51
2023/02/27 08:29:33;;;;;;;1.98;0.47;;;19.20;28.70;;;;;;5047370;28;20071;-49
2023/02/27 08:32:00;;;;;;;1.55;0.70;;;19.30;28.70;;;;;;5043531;28;20040;-52
2023/02/27 08:34:27;;;;;;;2.20;0.80;;;19.30;28.60;;;;;;5038743;28;20075;-52
2023/02/27 08:36:53;;;;;;;2.10;0.85;;;19.40;28.60;;;;;;5048970;28;20082;-51
2023/02/27 08:39:19;;;;;;;1.70;0.60;;;19.40;28.60;;;;;;5045424;28;20120;-54
2023/02/27 08:41:45;;;;;;;2.22;0.80;;;19.50;28.50;;;;;;5055356;28;20071;-50
2023/02/27 08:44:11;;;;;;;1.75;0.80;;;19.60;28.50;;;;;;5053836;28;20060;-53
2023/02/27 08:46:37;;;;;;;1.50;0.68;;;19.60;28.50;;;;;;5054187;28;20344;-53
2023/02/27 08:49:03;;;;;;;2.30;0.77;;;19.70;28.40;;;;;;5056210;28;20029;-53
2023/02/27 08:51:30;;;;;;;1.00;0.80;;;19.70;28.40;;;;;;5051390;28;20021;-52
2023/02/27 08:53:57;;;;;;;3.40;1.10;;;19.80;28.40;;;;;;5038809;28;20037;-49
2023/02/27 08:56:25;;;;;;;3.17;0.95;;;19.80;28.30;;;;;;5044738;28;20029;-52
2023/02/27 08:58:51;;;;;;;2.20;0.80;;;19.90;28.30;;;;;;5046640;28;20039;-52
2023/02/27 09:01:17;;;;;;;2.92;0.90;;;19.90;28.20;;;;;;5070842;28;20171;-51
2023/02/27 09:03:43;;;;;;;2.40;0.80;;;19.90;28.60;;;;;;5043137;28;20024;-53
2023/02/27 09:06:09;;;;;;;3.38;0.90;;;20.00;28.10;;;;;;5046637;28;20029;-48
2023/02/27 09:08:35;;;;;;;2.65;0.90;;;20.10;28.20;;;;;;5045382;28;20398;-51
2023/02/27 09:11:01;;;;;;;2.78;0.95;;;20.10;28.20;;;;;;5038012;28;20251;-54
2023/02/27 09:13:28;;;;;;;2.28;1.00;;;20.10;28.20;;;;;;5046903;28;20468;-53
2023/02/27 09:15:54;;;;;;;2.92;1.27;;;20.20;28.20;;;;;;5037498;28;20044;-52
2023/02/27 09:18:20;;;;;;;2.35;0.90;;;20.20;28.30;;;;;;5040247;28;20108;-49
2023/02/27 09:20:49;;;;;;;2.88;0.88;;;20.20;28.30;;;;;;5048775;28;20080;-52
2023/02/27 09:23:16;;;;;;;2.75;0.93;;;20.30;28.40;;;;;;5035491;28;20094;-54
2023/02/27 09:25:41;;;;;;;3.05;0.90;;;20.30;28.50;;;;;;5040754;28;20029;-53
2023/02/27 09:28:07;;;;;;;2.50;1.00;;;20.40;28.60;;;;;;5046102;28;20032;-53
2023/02/27 09:30:33;;;;;;;2.63;0.90;;;20.40;28.70;;;;;;5048762;28;20456;-52
2023/02/27 09:32:59;;;;;;;2.45;1.02;;;20.40;28.70;;;;;;5046326;28;20476;-53
2023/02/27 09:35:25;;;;;;;2.42;1.00;;;20.40;28.80;;;;;;5054841;28;20368;-50
2023/02/27 09:37:51;;;;;;;2.47;0.93;;;20.40;28.70;;;;;;5055328;28;20033;-51
2023/02/27 09:40:22;;;;;;;3.67;1.10;;;20.50;28.60;;;;;;5055019;28;20135;-50
2023/02/27 09:42:49;;;;;;;3.88;1.38;;;20.50;28.40;;;;;;5053116;28;20029;-50
2023/02/27 09:45:24;;;;;;;2.78;1.15;;;20.50;28.30;;;;;;5054560;28;20028;-51
2023/02/27 09:48:19;;;;;;;3.08;0.80;;;20.50;28.20;;;;;;5053381;28;20067;-52
2023/02/27 09:50:51;;;;;;;2.20;0.70;;;20.50;28.00;;;;;;5054528;28;20033;-51
2023/02/27 09:53:30;;;;;;;2.70;1.20;;;20.50;27.90;;;;;;5053330;28;20025;-50
2023/02/27 09:56:12;;;;;;;1.65;0.50;;;20.50;27.80;;;;;;5052870;28;20436;-51
2023/02/27 09:58:54;;;;;;;1.55;0.63;;;20.40;27.80;;;;;;5052886;28;20029;-52
2023/02/27 10:01:22;;;;;;;1.40;0.55;;;20.40;27.70;;;;;;5050662;28;20040;-53
2023/02/27 10:04:08;;;;;;;1.75;0.85;;;20.40;27.60;;;;;;5054207;28;20498;-54
2023/02/27 10:06:47;;;;;;;2.53;0.80;;;20.50;27.60;;;;;;5054092;28;20033;-52
2023/02/27 10:10:13;;;;;;;2.28;0.63;;;20.40;27.50;;;;;;5056016;28;20047;-53
2023/02/27 10:13:14;;;;;;;1.48;0.57;;;20.40;27.50;;;;;;5031542;28;20477;-54
2023/02/27 10:15:45;;;;;;;1.58;0.70;;;20.40;27.40;;;;;;5021364;28;20053;-54
2023/02/27 10:18:32;;;;;;;2.40;0.73;;;20.40;27.40;;;;;;5044709;28;20037;-48
2023/02/27 10:21:07;;;;;;;1.88;0.63;;;20.40;27.30;;;;;;5053305;28;20461;-54
2023/02/27 10:23:55;;;;;;;1.85;0.73;;;20.40;27.30;;;;;;5052439;28;20028;-51
2023/02/27 10:26:32;;;;;;;1.27;0.57;;;20.40;27.30;;;;;;5053015;28;20460;-54
2023/02/27 10:29:12;;;;;;;1.30;0.50;;;20.30;27.30;;;;;;5053326;28;20032;-52
2023/02/27 10:31:39;;;;;;;1.45;0.50;;;20.40;27.80;;;;;;5056137;28;20047;-52
2023/02/27 10:34:05;;;;;;;1.27;0.57;;;20.40;27.30;;;;;;5066297;28;20029;-53
2023/02/27 10:36:32;;;;;;;1.48;0.73;;;20.40;27.20;;;;;;5066345;28;20051;-49
2023/02/27 10:39:06;;;;;;;2.10;0.73;;;20.40;27.20;;;;;;5054345;28;20032;-53
2023/02/27 10:41:34;;;;;;;;;;;20.30;27.20;;;;;;5055712;28;20050;-54
2023/02/27 10:44:00;;;;;;;1.85;0.68;;;20.40;27.20;;;;;;5054935;28;19913;-54
2023/02/27 10:46:31;;;;;;;2.45;0.70;;;20.40;27.20;;;;;;5054887;28;20146;-54
2023/02/27 10:49:04;;;;;;;1.13;0.50;;;20.40;27.10;;;;;;5066099;28;20068;-52
2023/02/27 10:51:33;;;;;;;1.48;0.60;;;20.40;27.10;;;;;;5075400;28;20047;-50
2023/02/27 10:54:18;;;;;;;3.05;1.02;;;20.40;27.10;;;;;;5063027;28;20051;-53
2023/02/27 10:56:47;;;;;;;1.70;0.60;;;20.40;27.10;;;;;;5075229;28;20032;-49
2023/02/27 10:59:23;;;;;;;2.10;0.80;;;20.40;27.10;;;;;;5074501;28;20025;-52
2023/02/27 11:01:56;;;;;;;1.45;0.47;;;20.30;27.10;;;;;;5074451;28;20086;-52
2023/02/27 11:04:25;;;;;;;1.30;0.57;;;20.40;27.10;;;;;;5067884;28;20048;-52
2023/02/27 11:06:52;;;;;;;1.10;0.45;;;20.40;27.10;;;;;;5055054;28;20029;-51
2023/02/27 11:09:28;;;;;;;2.15;0.50;;;20.40;27.00;;;;;;5054210;28;20021;-53
2023/02/27 11:11:56;;;;;;;1.50;0.70;;;20.40;27.00;;;;;;5054742;28;20049;-52
2023/02/27 11:14:28;;;;;;;0.75;0.40;;;20.30;26.90;;;;;;5035856;28;20521;-51
2023/02/27 11:17:00;;;;;;;1.80;0.60;;;20.30;26.80;;;;;;5036629;28;20065;-52
2023/02/27 11:19:35;;;;;;;1.42;0.52;;;20.30;26.80;;;;;;5053329;28;20044;-48
2023/02/27 11:22:27;;;;;;;0.93;0.43;;;20.30;26.80;;;;;;5055152;28;20033;-52
2023/02/27 11:25:17;;;;;;;1.05;0.45;;;20.30;26.80;;;;;;5053752;28;20364;-54
2023/02/27 11:27:45;;;;;;;2.03;0.50;;;20.30;26.70;;;;;;5054830;28;20037;-53
2023/02/27 11:30:26;;;;;;;1.08;0.60;;;20.30;26.70;;;;;;5054916;28;20029;-52
2023/02/27 11:32:56;;;;;;;1.15;0.32;;;20.30;26.70;;;;;;5052877;28;20041;-53
2023/02/27 11:35:24;;;;;;;0.70;0.47;;;20.30;26.60;;;;;;5073729;28;20068;-54
2023/02/27 11:37:51;;;;;;;1.23;0.40;;;20.30;26.60;;;;;;5073343;28;20043;-52
2023/02/27 11:40:19;;;;;;;0.93;0.47;;;20.30;26.60;;;;;;5074501;28;20410;-53
2023/02/27 11:42:59;;;;;;;0.85;0.30;;;20.30;26.60;;;;;;5074675;28;20032;-51
2023/02/27 11:45:36;;;;;;;1.35;0.47;;;20.30;26.60;;;;;;5074982;28;20098;-51
2023/02/27 11:48:25;;;;;;;0.80;0.43;;;20.30;26.50;;;;;;5055839;28;20108;-53
2023/02/27 11:51:15;;;;;;;0.52;0.32;;;20.30;26.50;;;;;;5073991;28;20043;-50
2023/02/27 11:54:08;;;;;;;1.58;0.60;;;20.20;26.50;;;;;;5071705;28;20032;-50
2023/02/27 11:56:50;;;;;;;2.15;0.57;;;20.30;26.50;;;;;;5054306;28;20029;-52
2023/02/27 11:59:27;;;;;;;1.13;0.47;;;20.30;27.30;;;;;;5053942;28;20028;-52
2023/02/27 12:02:04;;;;;;;1.35;0.50;;;20.30;27.50;;;;;;5053988;28;20033;-53
2023/02/27 12:05:01;;;;;;;1.40;0.60;;;20.20;27.40;;;;;;5052875;28;20033;-53
2023/02/27 12:07:54;;;;;;;0.70;0.40;;;20.30;27.40;;;;;;5062215;28;20516;-47
2023/02/27 12:10:37;;;;;;;2.17;0.50;;;20.30;27.30;;;;;;5053979;28;20039;-53
2023/02/27 12:13:18;;;;;;;1.83;0.60;;;20.20;27.20;;;;;;5059387;28;20106;-52
2023/02/27 12:16:18;;;;;;;1.05;0.40;;;20.30;27.20;;;;;;5054502;28;20045;-49
2023/02/27 12:19:00;;;;;;;1.13;0.40;;;20.30;27.20;;;;;;5039214;28;20453;-53
2023/02/27 12:21:32;;;;;;;1.00;0.50;;;20.30;27.20;;;;;;5074801;28;20032;-54
2023/02/27 12:24:03;;;;;;;1.35;0.40;;;20.30;27.10;;;;;;5060111;28;20142;-53
2023/02/27 12:26:42;;;;;;;1.40;0.40;;;20.30;27.10;;;;;;5056836;28;20441;-53
2023/02/27 12:29:17;;;;;;;1.35;0.60;;;20.30;27.10;;;;;;5050726;28;20357;-51
2023/02/27 12:31:51;;;;;;;1.35;0.50;;;20.30;27.70;;;;;;5046935;28;20675;-55
2023/02/27 12:34:29;;;;;;;1.50;0.40;;;20.30;28.10;;;;;;5043795;28;20447;-54
2023/02/27 12:37:09;;;;;;;1.83;0.57;;;20.30;28.30;;;;;;5038280;28;20021;-53
2023/02/27 12:39:36;;;;;;;1.77;0.70;;;20.30;28.20;;;;;;5034831;28;20437;-52
2023/02/27 12:42:38;;;;;;;1.20;0.60;;;20.30;28.00;;;;;;5041436;28;20060;-52
2023/02/27 12:45:34;;;;;;;2.33;0.60;;;20.30;27.90;;;;;;5037985;28;20091;-52
2023/02/27 12:48:31;;;;;;;1.23;0.50;;;20.30;27.70;;;;;;5047331;28;20021;-49
2023/02/27 12:51:24;;;;;;;2.08;0.50;;;20.30;27.70;;;;;;5036359;28;20032;-51
2023/02/27 12:54:27;;;;;;;1.20;0.50;;;20.30;27.50;;;;;;5037345;28;20018;-53
2023/02/27 12:57:15;;;;;;;1.77;0.60;;;20.30;27.50;;;;;;5042139;28;20352;-51
2023/02/27 12:59:47;;;;;;;1.55;0.60;;;20.30;28.20;;;;;;5039685;28;20026;-51
2023/02/27 13:02:29;;;;;;;1.15;0.43;;;20.30;28.80;;;;;;5047498;28;20126;-52
2023/02/27 13:05:32;;;;;;;2.72;0.68;;;20.40;29.00;;;;;;5040130;28;20047;-52
2023/02/27 13:08:27;;;;;;;1.27;0.45;;;20.40;28.80;;;;;;5040663;28;20382;-51
2023/02/27 13:11:30;;;;;;;0.82;0.40;;;20.40;28.50;;;;;;5039506;28;20045;-51
2023/02/27 13:14:01;;;;;;;1.20;0.45;;;20.40;28.40;;;;;;5037704;28;20040;-53
2023/02/27 13:16:36;;;;;;;1.80;0.60;;;20.30;28.20;;;;;;5038238;28;20155;-52
2023/02/27 13:19:28;;;;;;;1.35;0.40;;;20.40;28.10;;;;;;5043207;28;20043;-51
2023/02/27 13:22:15;;;;;;;0.93;0.68;;;20.40;27.90;;;;;;5044049;28;20029;-54